Orbital elements of COSMOS 2251 DEB
| Launched | 15 June 1993 |
| Flight ended | – |
| Launch site | Plesetsk Missile and Space Complex, Russia |
| Owner | Commonwealth of Independent States (former USSR) |
| NORAD ID | 33972 |
| Date fetched |
Epoch osculation |
Inc. [°] |
Ecc. | RA asc node [hr] |
Arg Peri. [°] |
Mean anom [°] |
Mean motion [rev/day] |
Abs. mag |
| Date fetched |
Epoch osculation |
Inc. [°] |
Ecc. | RA asc node [hr] |
Arg Peri. [°] |
Mean anom [°] |
Mean motion [rev/day] |
Abs. mag |
| 2026 May 08 17:57 | 2026 May 05 10:05:46 | 73.9939 | 0.01242 | 19.0433 | 60.9358 | 328.6501 | 14.37899 | – |
| 2026 May 07 17:58 | 2026 May 05 10:05:46 | 73.9939 | 0.01242 | 19.0433 | 60.9358 | 328.6501 | 14.37899 | – |
| 2026 May 06 17:57 | 2026 May 05 10:05:46 | 73.9939 | 0.01242 | 19.0433 | 60.9358 | 328.6501 | 14.37899 | – |
| 2026 May 05 17:57 | 2026 May 05 10:05:46 | 73.9939 | 0.01242 | 19.0433 | 60.9358 | 328.6501 | 14.37899 | – |
| 2026 May 04 17:57 | 2026 Apr 30 11:33:07 | 73.9934 | 0.01244 | 19.6515 | 71.3229 | 328.6501 | 14.37899 | – |
| 2026 May 03 17:57 | 2026 Apr 30 11:33:07 | 73.9934 | 0.01244 | 19.6515 | 71.3229 | 328.6501 | 14.37899 | – |
| 2026 May 02 17:57 | 2026 Apr 30 11:33:07 | 73.9934 | 0.01244 | 19.6515 | 71.3229 | 328.6501 | 14.37899 | – |
| 2026 May 01 17:56 | 2026 Apr 30 11:33:07 | 73.9934 | 0.01244 | 19.6515 | 71.3229 | 328.6501 | 14.37899 | – |
| 2026 Apr 30 17:56 | 2026 Apr 30 11:33:07 | 73.9934 | 0.01244 | 19.6515 | 71.3229 | 328.6501 | 14.37899 | – |
| 2026 Apr 29 17:57 | 2026 Apr 22 00:23:11 | 73.9943 | 0.01247 | 20.6936 | 88.9054 | 328.6501 | 14.37899 | – |
| 2026 Apr 28 17:56 | 2026 Apr 22 00:23:11 | 73.9943 | 0.01247 | 20.6936 | 88.9054 | 328.6501 | 14.37899 | – |
| 2026 Apr 27 17:58 | 2026 Apr 22 00:23:11 | 73.9943 | 0.01247 | 20.6936 | 88.9054 | 328.6501 | 14.37899 | – |
| 2026 Apr 26 17:58 | 2026 Apr 22 00:23:11 | 73.9943 | 0.01247 | 20.6936 | 88.9054 | 328.6501 | 14.37899 | – |
| 2026 Apr 25 17:58 | 2026 Apr 22 00:23:11 | 73.9943 | 0.01247 | 20.6936 | 88.9054 | 328.6501 | 14.37899 | – |
| 2026 Apr 24 17:59 | 2026 Apr 22 00:23:11 | 73.9943 | 0.01247 | 20.6936 | 88.9054 | 328.6501 | 14.37899 | – |
| 2026 Apr 23 17:57 | 2026 Apr 19 13:22:38 | 73.9938 | 0.01246 | 20.9963 | 94.0031 | 328.6501 | 14.37899 | – |
| 2026 Apr 22 17:57 | 2026 Apr 19 13:22:38 | 73.9938 | 0.01246 | 20.9963 | 94.0031 | 328.6501 | 14.37899 | – |
| 2026 Apr 21 17:57 | 2026 Apr 19 13:22:38 | 73.9938 | 0.01246 | 20.9963 | 94.0031 | 328.6501 | 14.37899 | – |
| 2026 Apr 20 17:57 | 2026 Apr 19 13:22:38 | 73.9938 | 0.01246 | 20.9963 | 94.0031 | 328.6501 | 14.37899 | – |
| 2026 Apr 19 17:58 | 2026 Apr 19 13:22:38 | 73.9938 | 0.01246 | 20.9963 | 94.0031 | 328.6501 | 14.37899 | – |
| 2026 Apr 18 17:56 | 2026 Apr 12 20:59:23 | 73.9960 | 0.01246 | 21.8188 | 107.9944 | 328.6501 | 14.37899 | – |
| 2026 Apr 16 17:57 | 2026 Apr 12 20:59:23 | 73.9960 | 0.01246 | 21.8188 | 107.9944 | 328.6501 | 14.37899 | – |
| 2026 Apr 14 17:57 | 2026 Apr 12 20:59:23 | 73.9960 | 0.01246 | 21.8188 | 107.9944 | 328.6501 | 14.37899 | – |
| 2026 Apr 13 17:57 | 2026 Apr 12 20:59:23 | 73.9960 | 0.01246 | 21.8188 | 107.9944 | 328.6501 | 14.37899 | – |
| 2026 Apr 12 17:57 | 2026 Apr 08 02:22:31 | 73.9966 | 0.01247 | 22.4066 | 117.9502 | 328.6501 | 14.37899 | – |
| 2026 Apr 11 17:57 | 2026 Apr 08 02:22:31 | 73.9966 | 0.01247 | 22.4066 | 117.9502 | 328.6501 | 14.37899 | – |